createdAt,value
2017-07-26T00:00:08.448Z,19.3
2017-07-26T00:01:16.533Z,19.4
2017-07-26T00:02:24.637Z,19.4
2017-07-26T00:03:32.705Z,19.4
2017-07-26T00:04:40.792Z,19.4
2017-07-26T00:05:48.878Z,19.4
2017-07-26T00:06:57.021Z,19.4
2017-07-26T00:08:05.052Z,19.4
2017-07-26T00:09:13.137Z,19.4
2017-07-26T00:10:21.221Z,19.4
2017-07-26T00:11:29.310Z,19.4
2017-07-26T00:12:37.396Z,19.4
2017-07-26T00:13:45.480Z,19.4
2017-07-26T00:14:53.566Z,19.4
2017-07-26T00:16:01.652Z,19.4
2017-07-26T00:17:09.741Z,19.3
2017-07-26T00:18:17.827Z,19.4
2017-07-26T00:19:25.914Z,19.4
2017-07-26T00:20:33.998Z,19.4
2017-07-26T00:21:42.085Z,19.4
2017-07-26T00:22:50.178Z,19.3
2017-07-26T00:23:58.262Z,19.4
2017-07-26T00:25:06.348Z,19.4
2017-07-26T00:26:14.437Z,19.4
2017-07-26T00:27:22.520Z,19.4
2017-07-26T00:28:30.608Z,19.4
2017-07-26T00:29:38.693Z,19.3
2017-07-26T00:30:46.779Z,19.3
2017-07-26T00:31:54.865Z,19.4
2017-07-26T00:33:02.952Z,19.4
2017-07-26T00:34:11.037Z,19.3
2017-07-26T00:35:19.122Z,19.3
2017-07-26T00:36:27.211Z,19.4
2017-07-26T00:37:35.292Z,19.4
2017-07-26T00:38:43.380Z,19.4
2017-07-26T00:39:51.467Z,19.3
2017-07-26T00:40:59.557Z,19.3
2017-07-26T00:42:07.646Z,19.3
2017-07-26T00:43:15.729Z,19.3
2017-07-26T00:44:23.815Z,19.2
2017-07-26T00:45:31.902Z,19.3
2017-07-26T00:46:39.999Z,19.4
2017-07-26T00:47:48.074Z,19.3
2017-07-26T00:48:56.279Z,19.3
2017-07-26T00:50:04.246Z,19.3
2017-07-26T00:51:12.333Z,19.3
2017-07-26T00:52:20.418Z,19.2
2017-07-26T00:53:28.505Z,19.3
2017-07-26T00:54:36.592Z,19.2
2017-07-26T00:55:44.677Z,19.3
2017-07-26T00:56:52.763Z,19.3
2017-07-26T00:58:00.849Z,19.3
2017-07-26T00:59:08.937Z,19.2
2017-07-26T01:00:17.023Z,19.3
2017-07-26T01:01:25.153Z,19.3
2017-07-26T01:02:33.194Z,19.3
2017-07-26T01:03:41.280Z,19.3
2017-07-26T01:04:49.367Z,19.3
2017-07-26T01:05:57.455Z,19.2
2017-07-26T01:07:05.546Z,19.3
2017-07-26T01:08:13.625Z,19.3
2017-07-26T01:09:21.710Z,19.3
2017-07-26T01:10:29.798Z,19.2
2017-07-26T01:11:37.882Z,19.2
2017-07-26T01:12:45.969Z,19.3
2017-07-26T01:13:54.055Z,19.3
2017-07-26T01:15:02.143Z,19.2
2017-07-26T01:16:10.227Z,19.2
2017-07-26T01:17:18.312Z,19.2
2017-07-26T01:18:26.399Z,19.3
2017-07-26T01:19:34.485Z,19.2
2017-07-26T01:20:42.571Z,19.3
2017-07-26T01:21:50.658Z,19.2
2017-07-26T01:22:58.745Z,19.2
2017-07-26T01:24:06.829Z,19.2
2017-07-26T01:25:14.920Z,19.2
2017-07-26T01:26:23.002Z,19.2
2017-07-26T01:27:31.088Z,19.2
2017-07-26T01:28:39.173Z,19.2
2017-07-26T01:29:47.259Z,19.3
2017-07-26T01:30:55.345Z,19.2
2017-07-26T01:32:03.431Z,19.2
2017-07-26T01:33:11.519Z,19.2
2017-07-26T01:34:19.605Z,19.2
2017-07-26T01:35:27.692Z,19.2
2017-07-26T01:36:35.778Z,19.2
2017-07-26T01:37:43.863Z,19.2
2017-07-26T01:38:51.946Z,19.2
2017-07-26T01:40:00.034Z,19.3
2017-07-26T01:41:08.120Z,19.2
2017-07-26T01:42:16.208Z,19.1
2017-07-26T01:43:24.294Z,19.2
2017-07-26T01:44:32.380Z,19.2
2017-07-26T01:45:40.468Z,19.2
2017-07-26T01:46:48.611Z,19.2
2017-07-26T01:47:56.637Z,19.1
2017-07-26T01:49:04.723Z,19.1
2017-07-26T01:50:12.809Z,19.2
2017-07-26T01:51:20.896Z,19.2
2017-07-26T01:52:28.982Z,19.1
2017-07-26T01:53:37.068Z,19.1
2017-07-26T01:54:45.154Z,19.1
2017-07-26T01:55:53.241Z,19.1
2017-07-26T01:57:01.326Z,19.1
2017-07-26T01:58:09.419Z,19.1
2017-07-26T01:59:17.496Z,19.1
2017-07-26T02:00:25.584Z,19.1
2017-07-26T02:01:33.670Z,19.1
2017-07-26T02:02:41.755Z,19.2
2017-07-26T02:03:49.921Z,19.1
2017-07-26T02:04:57.929Z,19.2
2017-07-26T02:06:06.015Z,19.2
2017-07-26T02:07:14.098Z,19.2
2017-07-26T02:08:22.183Z,19.1
2017-07-26T02:09:30.272Z,19.2
2017-07-26T02:10:38.365Z,19.2
2017-07-26T02:11:46.451Z,19.1
2017-07-26T02:12:54.536Z,19.1
2017-07-26T02:14:02.621Z,19.2
2017-07-26T02:15:10.708Z,19.1
2017-07-26T02:16:18.795Z,19.2
2017-07-26T02:17:26.903Z,19.1
2017-07-26T02:18:34.966Z,19.2
2017-07-26T02:19:43.053Z,19.1
2017-07-26T02:20:51.178Z,19.1
2017-07-26T02:21:59.225Z,19.1
2017-07-26T02:23:07.309Z,19.2
2017-07-26T02:24:15.394Z,19.1
2017-07-26T02:25:23.481Z,19.1
2017-07-26T02:26:31.566Z,19.1
2017-07-26T02:27:39.652Z,19.1
2017-07-26T02:28:47.763Z,19.1
2017-07-26T02:29:55.825Z,19.1
2017-07-26T02:31:03.913Z,19.1
2017-07-26T02:32:11.997Z,19.1
2017-07-26T02:33:20.083Z,19.1
2017-07-26T02:34:28.169Z,19.1
2017-07-26T02:35:36.253Z,19.0
2017-07-26T02:36:44.339Z,19.1
2017-07-26T02:37:52.483Z,19.1
2017-07-26T02:39:00.511Z,19.1
2017-07-26T02:40:08.601Z,19.1
2017-07-26T02:41:16.688Z,19.1
2017-07-26T02:42:24.773Z,19.1
2017-07-26T02:43:32.858Z,19.1
2017-07-26T02:44:40.944Z,19.1
2017-07-26T02:45:49.031Z,19.1
2017-07-26T02:46:57.117Z,19.1
2017-07-26T02:48:05.201Z,19.0
2017-07-26T02:49:13.289Z,19.1
2017-07-26T02:50:21.377Z,19.1
2017-07-26T02:51:29.485Z,18.9
2017-07-26T02:52:37.548Z,19.0
2017-07-26T02:53:45.634Z,19.0
2017-07-26T02:54:53.784Z,19.0
2017-07-26T02:56:01.803Z,19.0
2017-07-26T02:57:09.889Z,19.0
2017-07-26T02:58:17.974Z,18.9
2017-07-26T02:59:26.062Z,19.1
2017-07-26T03:00:34.173Z,19.1
2017-07-26T03:01:42.235Z,19.0
2017-07-26T03:02:50.320Z,19.1
2017-07-26T03:03:58.403Z,19.0
2017-07-26T03:05:06.491Z,19.1
2017-07-26T03:06:14.577Z,19.1
2017-07-26T03:07:22.663Z,19.1
2017-07-26T03:08:30.749Z,19.0
2017-07-26T03:09:38.835Z,19.0
2017-07-26T03:10:46.921Z,19.1
2017-07-26T03:11:55.013Z,19.0
2017-07-26T03:13:03.093Z,19.0
2017-07-26T03:14:11.178Z,19.0
2017-07-26T03:15:19.265Z,19.0
2017-07-26T03:16:27.351Z,19.1
2017-07-26T03:17:35.443Z,18.9
2017-07-26T03:18:43.527Z,18.9
2017-07-26T03:19:51.621Z,18.9
2017-07-26T03:20:59.706Z,19.1
2017-07-26T03:22:07.793Z,19.0
2017-07-26T03:23:15.878Z,19.0
2017-07-26T03:24:23.964Z,18.9
2017-07-26T03:25:32.055Z,18.9
2017-07-26T03:26:40.192Z,18.9
2017-07-26T03:27:48.224Z,18.9
2017-07-26T03:28:56.413Z,18.9
2017-07-26T03:30:04.411Z,19.0
2017-07-26T03:31:12.492Z,18.9
2017-07-26T03:32:20.579Z,19.0
2017-07-26T03:33:28.664Z,19.0
2017-07-26T03:34:36.750Z,19.0
2017-07-26T03:35:44.838Z,18.9
2017-07-26T03:36:52.922Z,19.1
2017-07-26T03:38:01.009Z,18.9
2017-07-26T03:39:09.092Z,19.0
2017-07-26T03:40:17.178Z,19.0
2017-07-26T03:41:25.266Z,18.9
2017-07-26T03:42:33.374Z,18.9
2017-07-26T03:43:41.438Z,18.9
2017-07-26T03:44:49.524Z,18.9
2017-07-26T03:45:57.610Z,18.9
2017-07-26T03:47:05.695Z,18.9
2017-07-26T03:48:13.780Z,18.9
2017-07-26T03:49:21.865Z,19.0
2017-07-26T03:50:29.952Z,19.0
2017-07-26T03:51:38.044Z,19.0
2017-07-26T03:52:46.129Z,18.9
2017-07-26T03:53:54.215Z,19.0
2017-07-26T03:55:02.303Z,18.9
2017-07-26T03:56:10.388Z,18.9
2017-07-26T03:57:18.474Z,18.9
2017-07-26T03:58:26.561Z,18.9
2017-07-26T03:59:34.645Z,19.0
2017-07-26T04:00:42.731Z,18.9
2017-07-26T04:01:50.818Z,19.0
2017-07-26T04:02:58.990Z,19.0
2017-07-26T04:04:06.990Z,18.9
2017-07-26T04:05:15.076Z,18.9
2017-07-26T04:06:23.162Z,18.9
2017-07-26T04:07:31.246Z,18.9
2017-07-26T04:08:39.336Z,19.0
2017-07-26T04:09:47.419Z,18.9
2017-07-26T04:10:55.503Z,19.0
2017-07-26T04:12:03.592Z,18.9
2017-07-26T04:13:11.677Z,18.9
2017-07-26T04:14:19.789Z,19.0
2017-07-26T04:15:27.848Z,18.9
2017-07-26T04:16:35.932Z,18.9
2017-07-26T04:17:44.017Z,18.9
2017-07-26T04:18:52.100Z,18.9
2017-07-26T04:20:00.694Z,19.0
2017-07-26T04:21:08.277Z,18.9
2017-07-26T04:22:16.365Z,19.0
2017-07-26T04:23:24.451Z,19.0
2017-07-26T04:24:32.534Z,19.0
2017-07-26T04:25:40.620Z,18.9
2017-07-26T04:26:48.707Z,18.9
2017-07-26T04:27:56.793Z,18.9
2017-07-26T04:29:04.881Z,18.9
2017-07-26T04:30:12.965Z,18.9
2017-07-26T04:31:21.051Z,18.9
2017-07-26T04:32:29.146Z,19.0
2017-07-26T04:33:37.229Z,18.9
2017-07-26T04:34:45.318Z,19.0
2017-07-26T04:35:53.400Z,18.8
2017-07-26T04:37:01.550Z,18.9
2017-07-26T04:38:09.571Z,19.0
2017-07-26T04:39:17.658Z,18.9
2017-07-26T04:40:25.766Z,19.0
2017-07-26T04:41:33.830Z,18.9
2017-07-26T04:42:41.922Z,19.0
2017-07-26T04:43:50.004Z,18.9
2017-07-26T04:44:58.087Z,18.9
2017-07-26T04:46:06.197Z,18.9
2017-07-26T04:47:14.566Z,18.9
2017-07-26T04:48:22.346Z,19.0
2017-07-26T04:49:30.440Z,18.9
2017-07-26T04:50:38.533Z,18.9
2017-07-26T04:51:46.627Z,18.9
2017-07-26T04:52:54.713Z,18.9
2017-07-26T04:54:02.800Z,18.9
2017-07-26T04:55:10.884Z,18.9
2017-07-26T04:56:18.973Z,18.9
2017-07-26T04:57:27.057Z,18.9
2017-07-26T04:58:35.141Z,18.9
2017-07-26T04:59:43.227Z,18.9
2017-07-26T05:00:51.313Z,18.9
2017-07-26T05:01:59.401Z,18.9
2017-07-26T05:03:07.489Z,19.0
2017-07-26T05:04:15.581Z,19.0
2017-07-26T05:05:23.664Z,18.9
2017-07-26T05:06:31.753Z,19.0
2017-07-26T05:07:39.837Z,18.9
2017-07-26T05:09:56.010Z,18.9
2017-07-26T05:11:04.097Z,18.9
2017-07-26T05:12:12.181Z,19.0
2017-07-26T05:13:20.267Z,18.9
2017-07-26T05:14:28.355Z,18.9
2017-07-26T05:15:36.443Z,18.9
2017-07-26T05:16:44.526Z,19.0
2017-07-26T05:17:52.611Z,18.9
2017-07-26T05:19:00.705Z,18.9
2017-07-26T05:20:08.783Z,18.9
2017-07-26T05:21:16.969Z,19.0
2017-07-26T05:22:24.954Z,18.9
2017-07-26T05:23:33.041Z,18.9
2017-07-26T05:24:41.152Z,18.9
2017-07-26T05:25:49.213Z,19.0
2017-07-26T05:26:57.308Z,19.0
2017-07-26T05:28:05.394Z,18.9
2017-07-26T05:29:13.480Z,18.9
2017-07-26T05:30:21.565Z,19.0
2017-07-26T05:31:29.652Z,18.9
2017-07-26T05:32:37.739Z,19.0
2017-07-26T05:33:45.825Z,19.0
2017-07-26T05:34:53.910Z,19.0
2017-07-26T05:36:01.996Z,18.9
2017-07-26T05:37:10.080Z,18.9
2017-07-26T05:38:18.167Z,19.0
2017-07-26T05:39:26.252Z,18.9
2017-07-26T05:40:34.339Z,19.0
2017-07-26T05:41:42.426Z,19.0
2017-07-26T05:42:50.512Z,18.9
2017-07-26T05:43:58.598Z,19.0
2017-07-26T05:45:06.685Z,19.0
2017-07-26T05:46:14.769Z,19.0
2017-07-26T05:47:22.855Z,19.0
2017-07-26T05:48:30.940Z,19.0
2017-07-26T05:49:39.027Z,19.0
2017-07-26T05:50:47.114Z,18.9
2017-07-26T05:51:55.198Z,18.9
2017-07-26T05:53:03.286Z,18.9
2017-07-26T05:54:11.372Z,18.9
2017-07-26T05:55:19.457Z,18.9
2017-07-26T05:56:27.543Z,18.8
2017-07-26T05:57:35.648Z,19.0
2017-07-26T05:58:43.716Z,18.9
2017-07-26T05:59:51.802Z,18.8
2017-07-26T06:00:59.888Z,18.9
2017-07-26T06:02:07.974Z,18.9
2017-07-26T06:03:16.061Z,18.9
2017-07-26T06:04:24.146Z,19.0
2017-07-26T06:05:32.231Z,18.9
2017-07-26T06:06:40.318Z,18.9
2017-07-26T06:07:48.403Z,18.9
2017-07-26T06:08:56.492Z,18.9
2017-07-26T06:10:04.579Z,18.8
2017-07-26T06:11:12.663Z,18.9
2017-07-26T06:12:20.749Z,18.9
2017-07-26T06:13:28.835Z,18.9
2017-07-26T06:14:36.921Z,18.9
2017-07-26T06:15:45.006Z,18.8
2017-07-26T06:16:53.094Z,18.8
2017-07-26T06:18:01.178Z,18.8
2017-07-26T06:19:09.265Z,18.8
2017-07-26T06:20:17.352Z,18.8
2017-07-26T06:21:25.437Z,18.8
2017-07-26T06:22:33.523Z,18.9
2017-07-26T06:23:41.609Z,18.9
2017-07-26T06:24:49.693Z,18.8
2017-07-26T06:25:57.780Z,18.8
2017-07-26T06:27:05.874Z,18.8
2017-07-26T06:28:13.978Z,18.9
2017-07-26T06:29:22.040Z,18.9
2017-07-26T06:30:30.180Z,18.8
2017-07-26T06:31:38.238Z,18.8
2017-07-26T06:32:46.377Z,18.8
2017-07-26T06:33:54.435Z,18.8
2017-07-26T06:35:02.470Z,18.8
2017-07-26T06:36:10.554Z,18.8
2017-07-26T06:37:18.639Z,18.8
2017-07-26T06:38:26.726Z,18.8
2017-07-26T06:39:34.813Z,18.8
2017-07-26T06:40:42.900Z,18.8
2017-07-26T06:41:50.987Z,18.8
2017-07-26T06:42:59.071Z,18.8
2017-07-26T06:44:07.155Z,18.8
2017-07-26T06:45:15.242Z,18.8
2017-07-26T06:46:23.327Z,18.9
2017-07-26T06:47:31.412Z,18.8
2017-07-26T06:48:39.498Z,18.8
2017-07-26T06:49:47.611Z,18.8
2017-07-26T06:50:55.673Z,18.9
2017-07-26T06:52:03.759Z,18.8
2017-07-26T06:53:11.846Z,18.8
2017-07-26T06:54:19.928Z,18.9
2017-07-26T06:55:28.016Z,18.8
2017-07-26T06:56:36.101Z,18.8
2017-07-26T06:57:44.245Z,18.8
2017-07-26T06:58:52.272Z,18.8
2017-07-26T07:00:00.358Z,18.8
2017-07-26T07:01:08.446Z,18.8
2017-07-26T07:02:16.530Z,18.8
2017-07-26T07:03:24.616Z,18.8
2017-07-26T07:04:32.699Z,18.9
2017-07-26T07:05:40.788Z,18.8
2017-07-26T07:06:48.882Z,18.8
2017-07-26T07:07:56.963Z,18.7
2017-07-26T07:09:05.050Z,18.8
2017-07-26T07:10:13.136Z,18.8
2017-07-26T07:11:21.222Z,18.8
2017-07-26T07:12:29.309Z,18.8
2017-07-26T07:13:37.394Z,18.7
2017-07-26T07:14:45.480Z,18.8
2017-07-26T07:15:53.565Z,18.8
2017-07-26T07:17:01.653Z,18.8
2017-07-26T07:18:09.739Z,18.8
2017-07-26T07:19:17.823Z,18.8
2017-07-26T07:20:25.909Z,18.8
2017-07-26T07:21:33.995Z,18.8
2017-07-26T07:22:42.082Z,18.8
2017-07-26T07:23:50.175Z,18.8
2017-07-26T07:24:58.255Z,18.8
2017-07-26T07:26:06.348Z,18.8
2017-07-26T07:27:14.424Z,18.7
2017-07-26T07:28:22.513Z,18.8
2017-07-26T07:29:30.596Z,18.8
2017-07-26T07:30:38.683Z,18.8
2017-07-26T07:31:46.769Z,18.8
2017-07-26T07:32:54.854Z,18.8
2017-07-26T07:34:02.940Z,18.8
2017-07-26T07:35:11.023Z,18.8
2017-07-26T07:36:19.111Z,18.8
2017-07-26T07:37:27.197Z,18.9
2017-07-26T07:38:35.282Z,18.8
2017-07-26T07:39:43.369Z,18.8
2017-07-26T07:40:51.725Z,18.8
2017-07-26T07:41:59.561Z,18.8
2017-07-26T07:43:07.627Z,18.8
2017-07-26T07:44:15.714Z,18.8
2017-07-26T07:45:23.798Z,18.8
2017-07-26T07:46:31.885Z,18.9
2017-07-26T07:47:39.971Z,18.8
2017-07-26T07:48:48.065Z,18.8
2017-07-26T07:49:56.154Z,18.8
2017-07-26T07:51:04.236Z,18.9
2017-07-26T07:52:12.322Z,18.8
2017-07-26T07:53:20.406Z,18.8
2017-07-26T07:54:28.491Z,18.9
2017-07-26T07:55:36.584Z,18.8
2017-07-26T07:56:44.666Z,18.9
2017-07-26T07:57:52.803Z,18.8
2017-07-26T07:59:00.838Z,18.8
2017-07-26T08:00:08.925Z,18.8
2017-07-26T08:01:17.159Z,18.8
2017-07-26T08:02:25.316Z,18.8
2017-07-26T08:03:33.239Z,18.8
2017-07-26T08:04:41.319Z,18.8
2017-07-26T08:05:49.355Z,18.9
2017-07-26T08:06:57.439Z,18.8
2017-07-26T08:08:05.535Z,18.8
2017-07-26T08:09:13.613Z,18.8
2017-07-26T08:10:21.697Z,18.9
2017-07-26T08:11:29.784Z,18.9
2017-07-26T08:12:37.868Z,18.9
2017-07-26T08:13:45.955Z,18.9
2017-07-26T08:14:54.042Z,18.9
2017-07-26T08:16:02.128Z,18.9
2017-07-26T08:17:10.215Z,18.9
2017-07-26T08:18:18.301Z,18.8
2017-07-26T08:19:26.388Z,18.9
2017-07-26T08:20:34.475Z,18.9
2017-07-26T08:21:42.559Z,19.0
2017-07-26T08:22:50.643Z,18.9
2017-07-26T08:23:58.731Z,19.0
2017-07-26T08:25:06.818Z,18.9
2017-07-26T08:26:14.908Z,18.9
2017-07-26T08:27:23.014Z,18.9
2017-07-26T08:28:31.077Z,18.9
2017-07-26T08:29:39.162Z,19.0
2017-07-26T08:30:47.756Z,19.0
2017-07-26T08:31:55.357Z,18.9
2017-07-26T08:33:03.418Z,18.9
2017-07-26T08:34:11.505Z,18.9
2017-07-26T08:35:19.592Z,19.0
2017-07-26T08:36:27.677Z,18.9
2017-07-26T08:37:35.764Z,19.0
2017-07-26T08:38:43.851Z,18.9
2017-07-26T08:39:51.936Z,18.9
2017-07-26T08:41:00.023Z,19.0
2017-07-26T08:42:08.107Z,18.9
2017-07-26T08:43:16.193Z,19.0
2017-07-26T08:44:24.277Z,19.0
2017-07-26T08:45:32.365Z,18.9
2017-07-26T08:46:40.459Z,19.0
2017-07-26T08:47:48.541Z,18.9
2017-07-26T08:48:56.657Z,19.0
2017-07-26T08:50:04.714Z,19.0
2017-07-26T08:51:12.800Z,19.0
2017-07-26T08:52:20.886Z,19.0
2017-07-26T08:53:28.970Z,19.0
2017-07-26T08:54:37.057Z,18.9
2017-07-26T08:55:45.140Z,18.9
2017-07-26T08:56:53.231Z,18.9
2017-07-26T08:58:01.316Z,19.0
2017-07-26T08:59:09.402Z,18.9
2017-07-26T09:00:17.488Z,18.9
2017-07-26T09:01:25.575Z,19.1
2017-07-26T09:02:33.659Z,18.9
2017-07-26T09:03:41.752Z,19.0
2017-07-26T09:04:49.832Z,19.1
2017-07-26T09:05:57.919Z,18.9
2017-07-26T09:07:06.061Z,18.9
2017-07-26T09:08:14.361Z,18.9
2017-07-26T09:09:22.185Z,19.1
2017-07-26T09:10:30.270Z,19.0
2017-07-26T09:11:38.357Z,19.0
2017-07-26T09:12:46.442Z,19.1
2017-07-26T09:13:54.528Z,19.1
2017-07-26T09:15:02.614Z,19.1
2017-07-26T09:16:10.702Z,19.1
2017-07-26T09:17:18.789Z,19.1
2017-07-26T09:18:26.875Z,19.1
2017-07-26T09:19:34.960Z,19.1
2017-07-26T09:20:43.047Z,19.1
2017-07-26T09:21:51.135Z,19.0
2017-07-26T09:22:59.222Z,19.1
2017-07-26T09:24:07.307Z,19.1
2017-07-26T09:25:15.393Z,19.1
2017-07-26T09:26:23.480Z,19.0
2017-07-26T09:27:31.567Z,19.0
2017-07-26T09:28:39.649Z,19.0
2017-07-26T09:29:47.738Z,19.1
2017-07-26T09:30:55.825Z,19.1
2017-07-26T09:32:03.910Z,19.1
2017-07-26T09:33:11.996Z,19.1
2017-07-26T09:34:20.083Z,19.1
2017-07-26T09:35:28.171Z,19.0
2017-07-26T09:36:36.256Z,19.0
2017-07-26T09:37:44.341Z,19.1
2017-07-26T09:38:52.449Z,19.1
2017-07-26T09:40:00.604Z,19.1
2017-07-26T09:41:08.600Z,19.1
2017-07-26T09:42:16.686Z,19.1
2017-07-26T09:43:24.772Z,19.1
2017-07-26T09:44:32.858Z,19.1
2017-07-26T09:45:40.947Z,19.1
2017-07-26T09:46:49.032Z,19.1
2017-07-26T09:47:57.122Z,19.1
2017-07-26T09:49:05.204Z,19.1
2017-07-26T09:50:13.293Z,19.1
2017-07-26T09:51:21.379Z,19.1
2017-07-26T09:52:29.465Z,19.1
2017-07-26T09:53:37.551Z,19.1
2017-07-26T09:54:45.639Z,19.1
2017-07-26T09:55:53.722Z,19.1
2017-07-26T09:57:01.815Z,19.1
2017-07-26T09:58:09.896Z,19.1
2017-07-26T09:59:17.982Z,19.1
2017-07-26T10:00:26.080Z,19.1
2017-07-26T10:01:34.168Z,19.1
2017-07-26T10:02:42.254Z,19.1
2017-07-26T10:03:50.341Z,19.1
2017-07-26T10:04:58.427Z,19.1
2017-07-26T10:06:06.536Z,19.1
2017-07-26T10:07:14.597Z,19.1
2017-07-26T10:08:22.692Z,19.1
2017-07-26T10:09:30.779Z,19.1
2017-07-26T10:10:38.865Z,19.1
2017-07-26T10:11:46.957Z,19.1
2017-07-26T10:12:55.047Z,19.1
2017-07-26T10:14:03.128Z,19.1
2017-07-26T10:15:11.214Z,19.1
2017-07-26T10:16:19.302Z,19.1
2017-07-26T10:17:27.396Z,19.1
2017-07-26T10:18:35.483Z,19.1
2017-07-26T10:19:43.569Z,19.1
2017-07-26T10:20:51.654Z,19.1
2017-07-26T10:21:59.747Z,19.1
2017-07-26T10:23:07.827Z,19.1
2017-07-26T10:24:15.913Z,19.2
2017-07-26T10:25:24.003Z,19.1
2017-07-26T10:26:32.087Z,19.1
2017-07-26T10:27:40.172Z,19.2
2017-07-26T10:28:48.508Z,19.1
2017-07-26T10:29:56.344Z,19.1
2017-07-26T10:31:04.427Z,19.1
2017-07-26T10:32:12.518Z,19.1
2017-07-26T10:33:20.750Z,19.1
2017-07-26T10:34:28.696Z,19.1
2017-07-26T10:35:36.776Z,19.2
2017-07-26T10:36:44.861Z,19.1
2017-07-26T10:37:52.958Z,19.1
2017-07-26T10:39:01.030Z,19.2
2017-07-26T10:40:09.120Z,19.1
2017-07-26T10:41:17.204Z,19.2
2017-07-26T10:42:25.311Z,19.2
2017-07-26T10:43:33.377Z,19.2
2017-07-26T10:44:41.465Z,19.1
2017-07-26T10:45:49.551Z,19.2
2017-07-26T10:46:57.637Z,19.2
2017-07-26T10:48:05.749Z,19.2
2017-07-26T10:49:13.810Z,19.2
2017-07-26T10:50:21.902Z,19.1
2017-07-26T10:51:29.988Z,19.1
2017-07-26T10:52:38.074Z,19.2
2017-07-26T10:53:46.309Z,19.2
2017-07-26T10:54:54.247Z,19.2
2017-07-26T10:56:02.334Z,19.3
2017-07-26T10:57:10.420Z,19.2
2017-07-26T10:58:18.533Z,19.2
2017-07-26T10:59:26.592Z,19.2
2017-07-26T11:00:34.730Z,19.2
2017-07-26T11:01:42.765Z,19.2
2017-07-26T11:02:50.857Z,19.2
2017-07-26T11:03:58.937Z,19.2
2017-07-26T11:05:07.233Z,19.2
2017-07-26T11:06:15.140Z,19.2
2017-07-26T11:07:23.198Z,19.2
2017-07-26T11:08:31.283Z,19.2
2017-07-26T11:09:39.392Z,19.2
2017-07-26T11:10:47.455Z,19.2
2017-07-26T11:11:55.541Z,19.2
2017-07-26T11:13:03.628Z,19.3
2017-07-26T11:14:11.715Z,19.2
2017-07-26T11:15:19.802Z,19.2
2017-07-26T11:16:27.889Z,19.3
2017-07-26T11:17:35.972Z,19.2
2017-07-26T11:18:44.058Z,19.3
2017-07-26T11:19:52.401Z,19.2
2017-07-26T11:21:00.690Z,19.3
2017-07-26T11:22:08.323Z,19.3
2017-07-26T11:23:16.410Z,19.3
2017-07-26T11:24:24.523Z,19.3
2017-07-26T11:25:32.585Z,19.3
2017-07-26T11:26:40.671Z,19.2
2017-07-26T11:27:48.756Z,19.3
2017-07-26T11:28:56.842Z,19.3
2017-07-26T11:30:04.929Z,19.3
2017-07-26T11:31:13.040Z,19.3
2017-07-26T11:32:21.103Z,19.3
2017-07-26T11:33:51.917Z,19.2
2017-07-26T11:34:37.276Z,19.3
2017-07-26T11:35:45.362Z,19.3
2017-07-26T11:36:53.445Z,19.3
2017-07-26T11:38:01.533Z,19.4
2017-07-26T11:39:09.617Z,19.2
2017-07-26T11:40:17.704Z,19.3
2017-07-26T11:41:25.792Z,19.3
2017-07-26T11:42:33.889Z,19.4
2017-07-26T11:43:41.963Z,19.3
2017-07-26T11:44:50.052Z,19.3
2017-07-26T11:45:58.138Z,19.4
2017-07-26T11:47:06.343Z,19.3
2017-07-26T11:48:14.315Z,19.2
2017-07-26T11:49:22.401Z,19.3
2017-07-26T11:50:30.487Z,19.2
2017-07-26T11:51:38.573Z,19.3
2017-07-26T11:52:46.660Z,19.3
2017-07-26T11:53:54.745Z,19.2
2017-07-26T11:55:02.833Z,19.4
2017-07-26T11:56:10.919Z,19.4
2017-07-26T11:57:19.004Z,19.3
2017-07-26T11:58:27.090Z,19.4
2017-07-26T11:59:35.221Z,19.3
2017-07-26T12:00:43.265Z,19.4
2017-07-26T12:01:51.351Z,19.4
2017-07-26T12:02:59.444Z,19.4
2017-07-26T12:04:07.525Z,19.3
2017-07-26T12:05:15.610Z,19.4
2017-07-26T12:06:23.695Z,19.4
2017-07-26T12:07:31.783Z,19.4
2017-07-26T12:08:39.870Z,19.4
2017-07-26T12:09:48.077Z,19.4
2017-07-26T12:10:56.042Z,19.5
2017-07-26T12:12:04.130Z,19.4
2017-07-26T12:13:12.215Z,19.4
2017-07-26T12:14:20.303Z,19.4
2017-07-26T12:15:28.391Z,19.4
2017-07-26T12:16:36.478Z,19.4
2017-07-26T12:17:44.560Z,19.5
2017-07-26T12:18:52.647Z,19.5
2017-07-26T12:20:00.735Z,19.5
2017-07-26T12:21:08.822Z,19.5
2017-07-26T12:22:16.903Z,19.6
2017-07-26T12:23:24.993Z,19.6
2017-07-26T12:24:33.083Z,19.6
2017-07-26T12:25:41.174Z,19.6
2017-07-26T12:26:49.261Z,19.5
2017-07-26T12:27:57.348Z,19.5
2017-07-26T12:29:05.442Z,19.5
2017-07-26T12:30:13.521Z,19.5
2017-07-26T12:31:21.608Z,19.5
2017-07-26T12:32:29.695Z,19.6
2017-07-26T12:33:37.782Z,19.6
2017-07-26T12:34:45.864Z,19.5
2017-07-26T12:35:53.952Z,19.6
2017-07-26T12:37:02.040Z,19.6
2017-07-26T12:38:10.128Z,19.7
2017-07-26T12:39:18.210Z,19.6
2017-07-26T12:40:26.299Z,19.6
2017-07-26T12:41:34.386Z,19.6
2017-07-26T12:42:42.473Z,19.6
2017-07-26T12:43:50.557Z,19.7
2017-07-26T12:44:58.642Z,19.6
2017-07-26T12:46:06.729Z,19.6
2017-07-26T12:47:14.815Z,19.6
2017-07-26T12:48:22.905Z,19.6
2017-07-26T12:49:30.990Z,19.7
2017-07-26T12:50:39.079Z,19.6
2017-07-26T12:51:47.172Z,19.6
2017-07-26T12:52:55.250Z,19.6
2017-07-26T12:54:03.333Z,19.7
2017-07-26T12:55:11.421Z,19.7
2017-07-26T12:56:19.510Z,19.7
2017-07-26T12:57:27.596Z,19.7
2017-07-26T12:58:35.683Z,19.6
2017-07-26T12:59:43.768Z,19.6
2017-07-26T13:00:51.853Z,19.6
2017-07-26T13:01:59.942Z,19.7
2017-07-26T13:03:08.027Z,19.6
2017-07-26T13:04:16.113Z,19.7
2017-07-26T13:05:24.201Z,19.6
2017-07-26T13:06:32.290Z,19.6
2017-07-26T13:07:40.382Z,19.5
2017-07-26T13:08:48.468Z,19.6
2017-07-26T13:09:56.556Z,19.6
2017-07-26T13:11:04.641Z,19.6
2017-07-26T13:12:12.788Z,19.4
2017-07-26T13:13:20.815Z,19.4
2017-07-26T13:14:28.901Z,19.5
2017-07-26T13:15:36.986Z,19.4
2017-07-26T13:16:45.072Z,19.5
2017-07-26T13:17:53.408Z,19.5
2017-07-26T13:19:01.244Z,19.5
2017-07-26T13:20:09.329Z,19.6
2017-07-26T13:21:17.420Z,19.6
2017-07-26T13:22:25.496Z,19.6
2017-07-26T13:23:33.587Z,19.6
2017-07-26T13:24:41.799Z,19.5
2017-07-26T13:25:49.762Z,19.5
2017-07-26T13:26:57.850Z,19.6
2017-07-26T13:28:06.063Z,19.6
2017-07-26T13:29:14.041Z,19.6
2017-07-26T13:30:22.116Z,19.6
2017-07-26T13:31:30.208Z,19.6
2017-07-26T13:32:38.288Z,19.5
2017-07-26T13:33:46.381Z,19.5
2017-07-26T13:34:54.467Z,19.5
2017-07-26T13:36:02.553Z,19.6
2017-07-26T13:37:10.639Z,19.5
2017-07-26T13:38:18.725Z,19.5
2017-07-26T13:39:26.808Z,19.6
2017-07-26T13:40:34.896Z,19.6
2017-07-26T13:41:42.983Z,19.6
2017-07-26T13:42:51.071Z,19.6
2017-07-26T13:43:59.157Z,19.6
2017-07-26T13:45:07.245Z,19.6
2017-07-26T13:46:15.406Z,19.6
2017-07-26T13:47:23.419Z,19.6
2017-07-26T13:48:31.501Z,19.6
2017-07-26T13:49:39.590Z,19.5
2017-07-26T13:50:47.676Z,19.6
2017-07-26T13:51:55.764Z,19.6
2017-07-26T13:53:03.850Z,19.6
2017-07-26T13:54:11.937Z,19.6
2017-07-26T13:55:20.023Z,19.6
2017-07-26T13:56:28.115Z,19.6
2017-07-26T13:57:36.200Z,19.6
2017-07-26T13:58:44.288Z,19.6
2017-07-26T13:59:52.374Z,19.6
2017-07-26T14:01:00.461Z,19.6
2017-07-26T14:02:08.546Z,19.6
2017-07-26T14:03:16.719Z,19.6
2017-07-26T14:04:24.722Z,19.7
2017-07-26T14:05:32.810Z,19.7
2017-07-26T14:06:40.896Z,19.6
2017-07-26T14:07:49.394Z,19.6
2017-07-26T14:08:57.074Z,19.6
2017-07-26T14:10:05.332Z,19.7
2017-07-26T14:11:13.251Z,19.6
2017-07-26T14:12:21.335Z,19.5
2017-07-26T14:13:29.641Z,19.7
2017-07-26T14:14:37.508Z,19.7
2017-07-26T14:15:45.592Z,19.7
2017-07-26T14:16:53.680Z,19.7
2017-07-26T14:18:01.775Z,19.6
2017-07-26T14:19:09.852Z,19.6
2017-07-26T14:20:18.007Z,19.7
2017-07-26T14:21:26.028Z,19.7
2017-07-26T14:22:34.114Z,19.7
2017-07-26T14:23:42.200Z,19.6
2017-07-26T14:24:50.287Z,19.7
2017-07-26T14:25:58.371Z,19.7
2017-07-26T14:27:06.467Z,19.7
2017-07-26T14:28:14.546Z,19.6
2017-07-26T14:29:22.632Z,19.7
2017-07-26T14:30:30.720Z,19.6
2017-07-26T14:31:38.806Z,19.7
2017-07-26T14:32:46.893Z,19.7
2017-07-26T14:33:54.981Z,19.6
2017-07-26T14:35:03.071Z,19.7
2017-07-26T14:36:11.149Z,19.7
2017-07-26T14:37:19.327Z,19.7
2017-07-26T14:38:27.324Z,19.7
2017-07-26T14:39:35.413Z,19.7
2017-07-26T14:40:43.499Z,19.7
2017-07-26T14:41:51.588Z,19.6
2017-07-26T14:42:59.674Z,19.7
2017-07-26T14:44:07.759Z,19.7
2017-07-26T14:45:15.846Z,19.6
2017-07-26T14:46:23.934Z,19.6
2017-07-26T14:47:32.018Z,19.7
2017-07-26T14:48:40.129Z,19.6
2017-07-26T14:49:48.192Z,19.8
2017-07-26T14:50:56.279Z,19.7
2017-07-26T14:52:04.366Z,19.7
2017-07-26T14:53:12.452Z,19.7
2017-07-26T14:54:20.556Z,19.7
2017-07-26T14:55:28.627Z,19.7
2017-07-26T14:56:36.711Z,19.7
2017-07-26T14:57:44.799Z,19.6
2017-07-26T14:58:52.882Z,19.6
2017-07-26T15:00:00.973Z,19.7
2017-07-26T15:01:09.059Z,19.7
2017-07-26T15:02:17.145Z,19.7
2017-07-26T15:03:25.231Z,19.7
2017-07-26T15:04:33.316Z,19.7
2017-07-26T15:05:41.415Z,19.7
2017-07-26T15:06:49.499Z,19.7